Time;durP1;ratioP1;P1;durP2;ratioP2;P2;SDS_P1;SDS_P2;PMS_P1;PMS_P2;Temp;Humidity;BMP_temperature;BMP_pressure;BME280_temperature;BME280_humidity;BME280_pressure;Samples;Min_cycle;Max_cycle;Signal;HPM_P1;HPM_P2
2022/11/30 00:01:23;;;;;;;29.10;18.80;;;7.10;99.90;;;;;;5083681;28;20048;-84
2022/11/30 00:03:52;;;;;;;28.63;18.25;;;7.10;99.90;;;;;;5103242;28;20130;-84
2022/11/30 00:06:21;;;;;;;28.42;19.17;;;7.10;99.90;;;;;;5088163;28;20070;-85
2022/11/30 00:08:48;;;;;;;29.80;19.48;;;7.10;99.90;;;;;;5088240;28;20781;-84
2022/11/30 00:11:20;;;;;;;29.58;18.17;;;7.10;99.90;;;;;;5103223;28;20122;-84
2022/11/30 00:13:46;;;;;;;29.77;19.03;;;7.10;99.90;;;;;;5099300;28;20051;-85
2022/11/30 00:16:11;;;;;;;28.73;17.98;;;7.10;99.90;;;;;;5099610;28;20114;-84
2022/11/30 00:18:37;;;;;;;32.33;18.92;;;7.10;99.90;;;;;;5099205;28;20048;-84
2022/11/30 00:21:07;;;;;;;31.42;18.35;;;7.00;99.90;;;;;;5097377;28;20050;-84
2022/11/30 00:23:38;;;;;;;28.02;18.20;;;7.00;99.90;;;;;;5101969;28;20130;-84
2022/11/30 00:26:07;;;;;;;29.33;19.42;;;7.00;99.90;;;;;;5100836;28;20043;-85
2022/11/30 00:28:34;;;;;;;31.13;19.05;;;6.90;99.90;;;;;;5097222;28;20040;-84
2022/11/30 00:31:02;;;;;;;33.03;18.63;;;6.90;99.90;;;;;;5097824;28;20051;-84
2022/11/30 00:33:30;;;;;;;26.85;17.92;;;6.80;99.90;;;;;;5100244;28;20059;-84
2022/11/30 00:35:57;;;;;;;29.50;18.67;;;6.70;99.90;;;;;;5097157;28;20047;-85
2022/11/30 00:38:23;;;;;;;30.45;18.83;;;6.60;99.90;;;;;;5099536;28;20055;-84
2022/11/30 00:40:49;;;;;;;29.20;18.83;;;6.50;99.90;;;;;;5097173;28;20047;-85
2022/11/30 00:43:14;;;;;;;31.75;18.75;;;6.40;99.90;;;;;;5103125;28;20062;-85
2022/11/30 00:45:40;;;;;;;28.80;18.95;;;6.30;99.90;;;;;;5107107;28;20065;-84
2022/11/30 00:48:06;;;;;;;31.17;19.30;;;6.30;99.90;;;;;;5101225;28;20047;-84
2022/11/30 00:50:31;;;;;;;28.65;18.30;;;6.10;99.90;;;;;;5114605;28;20043;-85
2022/11/30 00:52:57;;;;;;;30.13;19.45;;;6.10;99.90;;;;;;5082268;28;20083;-85
2022/11/30 00:55:23;;;;;;;30.52;17.75;;;6.10;99.90;;;;;;5098856;28;20127;-85
2022/11/30 00:57:48;;;;;;;31.63;18.90;;;6.10;99.90;;;;;;5098956;28;20051;-84
2022/11/30 01:00:14;;;;;;;34.13;21.02;;;6.10;99.90;;;;;;5097493;28;20048;-85
2022/11/30 01:02:39;;;;;;;34.50;20.98;;;6.10;99.90;;;;;;5097629;28;20150;-84
2022/11/30 01:05:05;;;;;;;39.05;20.98;;;6.00;99.90;;;;;;5099089;28;20425;-84
2022/11/30 01:07:31;;;;;;;39.78;21.10;;;6.00;99.90;;;;;;5100693;28;20104;-84
2022/11/30 01:09:56;;;;;;;38.42;21.92;;;6.00;99.90;;;;;;5106506;28;20405;-84
2022/11/30 01:12:22;;;;;;;39.17;21.00;;;6.00;99.90;;;;;;5102336;28;20490;-83
2022/11/30 01:14:48;;;;;;;39.03;20.27;;;5.90;99.90;;;;;;5102434;28;20481;-84
2022/11/30 01:17:14;;;;;;;41.45;21.15;;;5.90;99.90;;;;;;5097477;28;20144;-85
2022/11/30 01:19:39;;;;;;;39.70;22.33;;;5.90;99.90;;;;;;5097056;28;20083;-84
2022/11/30 01:22:05;;;;;;;40.13;20.77;;;5.90;99.90;;;;;;5104215;28;20130;-84
2022/11/30 01:24:31;;;;;;;42.40;21.90;;;6.00;99.90;;;;;;5104973;28;20077;-84
2022/11/30 01:26:56;;;;;;;44.85;23.13;;;6.00;99.90;;;;;;5102706;28;20027;-85
2022/11/30 01:29:22;;;;;;;43.50;23.40;;;6.00;99.90;;;;;;5101973;27;20047;-84
2022/11/30 01:31:47;;;;;;;40.17;22.02;;;6.00;99.90;;;;;;5101987;28;20196;-84
2022/11/30 01:34:13;;;;;;;39.58;22.25;;;6.10;99.90;;;;;;5101104;28;20124;-84
2022/11/30 01:36:38;;;;;;;42.08;21.50;;;6.10;99.90;;;;;;5101676;28;20046;-85
2022/11/30 01:39:08;;;;;;;40.97;22.52;;;6.10;99.90;;;;;;5109023;27;20103;-84
2022/11/30 01:41:34;;;;;;;43.45;21.92;;;6.20;99.90;;;;;;5100717;28;20089;-84
2022/11/30 01:44:05;;;;;;;44.10;22.02;;;6.20;99.90;;;;;;5109238;28;20050;-85
2022/11/30 01:47:02;;;;;;;41.70;21.93;;;6.20;99.90;;;;;;5104329;28;20068;-85
2022/11/30 01:49:38;;;;;;;46.30;22.88;;;6.20;99.90;;;;;;5117427;27;20071;-84
2022/11/30 01:52:09;;;;;;;41.53;22.33;;;6.30;99.90;;;;;;5101951;28;20046;-84
2022/11/30 01:54:50;;;;;;;43.28;22.02;;;6.20;99.90;;;;;;5085255;28;20109;-85
2022/11/30 01:57:43;;;;;;;38.08;21.08;;;6.30;99.90;;;;;;5099635;28;20047;-85
2022/11/30 02:00:10;;;;;;;;;;;6.30;99.90;;;;;;5100538;27;20784;-85
2022/11/30 02:02:50;;;;;;;36.78;20.30;;;6.30;99.90;;;;;;5083730;28;19927;-85
2022/11/30 02:05:20;;;;;;;39.25;22.15;;;6.30;99.90;;;;;;5104026;28;20044;-85
2022/11/30 02:07:47;;;;;;;38.50;21.88;;;6.40;99.90;;;;;;5098281;28;20116;-85
2022/11/30 02:10:19;;;;;;;35.03;20.50;;;6.30;99.90;;;;;;5116248;27;20135;-85
2022/11/30 02:12:45;;;;;;;;;;;6.30;99.90;;;;;;5103219;28;20500;-86
2022/11/30 02:15:20;;;;;;;38.13;20.27;;;6.30;99.90;;;;;;5107984;28;19943;-82
2022/11/30 02:18:08;;;;;;;34.35;21.10;;;6.30;99.90;;;;;;5107039;27;20047;-83
2022/11/30 02:20:57;;;;;;;37.25;21.27;;;6.30;99.90;;;;;;5101116;28;20071;-82
2022/11/30 02:23:41;;;;;;;39.45;23.38;;;6.30;99.90;;;;;;5100055;28;20055;-82
2022/11/30 02:26:24;;;;;;;33.83;21.50;;;6.30;99.90;;;;;;5101627;28;20040;-84
2022/11/30 02:29:08;;;;;;;37.95;22.42;;;6.30;99.90;;;;;;5110157;28;20058;-83
2022/11/30 02:31:45;;;;;;;42.65;22.85;;;6.30;99.90;;;;;;5104981;28;20118;-84
2022/11/30 02:34:14;;;;;;;38.75;21.65;;;6.30;99.90;;;;;;5109213;28;20047;-83
2022/11/30 02:36:41;;;;;;;36.28;22.20;;;6.30;99.90;;;;;;5106386;28;20047;-83
2022/11/30 02:39:08;;;;;;;38.92;22.95;;;6.30;99.90;;;;;;5102166;28;20109;-83
2022/11/30 02:41:39;;;;;;;38.33;22.45;;;6.30;99.90;;;;;;5101968;27;20128;-83
2022/11/30 02:44:06;;;;;;;40.05;23.38;;;6.30;99.90;;;;;;5101738;28;20055;-82
2022/11/30 02:46:49;;;;;;;38.08;22.08;;;6.30;99.90;;;;;;5100940;28;20058;-83
2022/11/30 02:49:27;;;;;;;37.70;22.13;;;6.30;99.90;;;;;;5116865;27;20047;-83
2022/11/30 02:51:55;;;;;;;39.53;22.38;;;6.30;99.90;;;;;;5108340;28;20126;-83
2022/11/30 02:54:21;;;;;;;39.10;23.20;;;6.30;99.90;;;;;;5100670;28;20055;-84
2022/11/30 02:56:46;;;;;;;39.03;21.50;;;6.30;99.90;;;;;;5100231;28;20039;-84
2022/11/30 02:59:12;;;;;;;36.33;22.65;;;6.30;99.90;;;;;;5099221;28;20055;-83
2022/11/30 03:01:38;;;;;;;38.55;23.00;;;6.30;99.90;;;;;;5098329;28;20169;-82
2022/11/30 03:04:04;;;;;;;42.28;23.42;;;6.30;99.90;;;;;;5105382;28;20767;-83
2022/11/30 03:06:29;;;;;;;39.15;22.85;;;6.30;99.90;;;;;;5104063;28;20091;-83
2022/11/30 03:08:55;;;;;;;40.08;24.25;;;6.40;99.90;;;;;;5080909;28;22054;-82
2022/11/30 03:11:20;;;;;;;40.05;23.38;;;6.40;99.90;;;;;;5100097;28;20078;-83
2022/11/30 03:13:46;;;;;;;38.47;23.23;;;6.40;99.90;;;;;;5101261;28;20063;-84
2022/11/30 03:16:12;;;;;;;42.10;23.77;;;6.40;99.90;;;;;;5108331;28;20051;-84
2022/11/30 03:18:38;;;;;;;42.65;24.15;;;6.40;99.90;;;;;;5106642;28;20050;-83
2022/11/30 03:21:06;;;;;;;38.38;22.83;;;6.40;99.90;;;;;;5105464;28;20047;-84
2022/11/30 03:23:31;;;;;;;39.80;22.17;;;6.40;99.90;;;;;;5105322;28;20075;-83
2022/11/30 03:25:58;;;;;;;42.00;23.70;;;6.40;99.90;;;;;;5104485;28;20059;-82
2022/11/30 03:28:24;;;;;;;40.28;24.75;;;6.40;99.90;;;;;;5107706;28;20058;-84
2022/11/30 03:30:50;;;;;;;39.05;22.50;;;6.40;99.90;;;;;;5107162;28;20134;-83
2022/11/30 03:33:16;;;;;;;45.17;23.98;;;6.40;99.90;;;;;;5106691;28;20087;-84
2022/11/30 03:35:42;;;;;;;39.25;22.60;;;6.40;99.90;;;;;;5107436;28;20032;-83
2022/11/30 03:38:08;;;;;;;41.90;24.23;;;6.40;99.90;;;;;;5108371;28;20054;-83
2022/11/30 03:40:36;;;;;;;41.83;24.90;;;6.40;99.90;;;;;;5107567;28;20050;-83
2022/11/30 03:43:02;;;;;;;39.22;23.17;;;6.50;99.90;;;;;;5106701;28;20040;-83
2022/11/30 03:45:27;;;;;;;39.92;23.63;;;7.00;99.90;;;;;;5106705;28;20047;-84
2022/11/30 03:47:53;;;;;;;41.03;23.00;;;6.40;99.90;;;;;;5102458;28;20044;-84
2022/11/30 03:50:18;;;;;;;40.83;23.38;;;6.50;99.90;;;;;;5105187;28;20151;-83
2022/11/30 03:52:44;;;;;;;42.08;22.80;;;6.50;99.90;;;;;;5108668;28;20039;-84
2022/11/30 03:55:10;;;;;;;40.63;23.60;;;6.50;99.90;;;;;;5105873;28;20089;-84
2022/11/30 03:57:35;;;;;;;42.60;23.13;;;6.40;99.90;;;;;;5105470;28;20569;-84
2022/11/30 04:00:02;;;;;;;42.80;24.85;;;6.40;99.90;;;;;;5102784;28;20520;-83
2022/11/30 04:02:28;;;;;;;42.47;23.48;;;6.50;99.90;;;;;;5102725;28;20058;-83
2022/11/30 04:04:54;;;;;;;40.63;24.02;;;6.50;99.90;;;;;;5108018;28;20055;-84
2022/11/30 04:07:19;;;;;;;40.95;23.75;;;6.50;99.90;;;;;;5085326;28;20511;-84
2022/11/30 04:09:45;;;;;;;41.10;23.83;;;6.50;99.90;;;;;;5102522;28;20067;-83
2022/11/30 04:12:10;;;;;;;40.05;24.08;;;6.50;99.90;;;;;;5105004;28;20092;-84
2022/11/30 04:14:36;;;;;;;37.17;22.77;;;6.50;99.90;;;;;;5084705;28;20044;-84
2022/11/30 04:17:01;;;;;;;42.22;24.42;;;6.50;99.90;;;;;;5106466;28;20420;-84
2022/11/30 04:19:27;;;;;;;39.78;23.35;;;6.50;99.90;;;;;;5105725;28;20289;-83
2022/11/30 04:21:52;;;;;;;43.15;25.50;;;6.50;99.90;;;;;;5105525;28;20044;-83
2022/11/30 04:24:18;;;;;;;42.40;25.05;;;6.50;99.90;;;;;;5105871;28;20043;-84
2022/11/30 04:26:44;;;;;;;41.08;24.33;;;6.50;99.90;;;;;;5105164;28;20051;-84
2022/11/30 04:29:10;;;;;;;39.17;22.45;;;6.50;99.90;;;;;;5105486;28;20087;-83
2022/11/30 04:31:36;;;;;;;41.60;24.13;;;6.50;99.90;;;;;;5106271;28;20824;-84
2022/11/30 04:34:01;;;;;;;37.13;22.95;;;6.50;99.90;;;;;;5104585;28;20680;-84
2022/11/30 04:36:27;;;;;;;40.20;22.50;;;6.50;99.90;;;;;;5107238;28;20051;-83
2022/11/30 04:38:52;;;;;;;39.75;23.42;;;6.50;99.90;;;;;;5105433;28;20071;-84
2022/11/30 04:41:18;;;;;;;42.15;22.65;;;6.50;99.90;;;;;;5105692;28;20043;-83
2022/11/30 04:43:44;;;;;;;39.55;22.05;;;6.50;99.90;;;;;;5105638;28;20040;-84
2022/11/30 04:46:09;;;;;;;40.10;22.73;;;6.50;99.90;;;;;;5105450;28;20122;-83
2022/11/30 04:48:35;;;;;;;40.92;22.73;;;6.50;99.90;;;;;;5100815;28;20040;-83
2022/11/30 04:51:06;;;;;;;41.92;23.75;;;6.50;99.90;;;;;;5105560;28;20055;-83
2022/11/30 04:53:32;;;;;;;41.53;23.23;;;6.50;99.90;;;;;;5090834;28;20047;-84
2022/11/30 04:56:02;;;;;;;40.13;23.05;;;6.60;99.90;;;;;;5102365;28;20047;-83
2022/11/30 04:58:31;;;;;;;43.15;21.58;;;6.50;99.90;;;;;;5107346;28;20167;-84
2022/11/30 05:00:57;;;;;;;40.90;22.50;;;6.50;99.90;;;;;;5103228;28;20485;-84
2022/11/30 05:03:22;;;;;;;38.75;22.08;;;6.50;99.90;;;;;;5099439;28;20055;-83
2022/11/30 05:05:48;;;;;;;40.97;22.65;;;6.50;99.90;;;;;;5105968;28;20056;-83
2022/11/30 05:08:13;;;;;;;39.05;21.23;;;6.50;99.90;;;;;;5118953;27;20048;-83
2022/11/30 05:10:39;;;;;;;40.30;22.20;;;6.50;99.90;;;;;;5099743;28;20040;-84
2022/11/30 05:13:04;;;;;;;41.83;22.00;;;6.50;99.90;;;;;;5101269;28;20051;-84
2022/11/30 05:15:30;;;;;;;41.80;22.67;;;6.60;99.90;;;;;;5102182;28;20044;-83
2022/11/30 05:18:00;;;;;;;41.55;22.55;;;6.50;99.90;;;;;;5101378;28;20088;-83
2022/11/30 05:20:29;;;;;;;38.92;22.42;;;6.60;99.90;;;;;;5100580;28;20051;-83
2022/11/30 05:22:55;;;;;;;42.05;21.98;;;6.50;99.90;;;;;;5101025;28;20051;-83
2022/11/30 05:25:20;;;;;;;43.25;22.85;;;6.50;99.90;;;;;;5107770;28;20043;-83
2022/11/30 05:27:46;;;;;;;43.85;23.00;;;6.50;99.90;;;;;;5101135;27;20056;-83
2022/11/30 05:30:12;;;;;;;42.40;22.30;;;6.60;99.90;;;;;;5101859;28;20161;-84
2022/11/30 05:32:37;;;;;;;41.00;21.92;;;6.60;99.90;;;;;;5100939;28;20043;-82
2022/11/30 05:35:03;;;;;;;46.10;22.52;;;6.60;99.90;;;;;;5103226;28;20054;-83
2022/11/30 05:37:29;;;;;;;40.90;22.05;;;6.60;99.90;;;;;;5101437;28;20047;-84
2022/11/30 05:39:54;;;;;;;43.13;22.85;;;6.60;99.90;;;;;;5100737;28;20070;-84
2022/11/30 05:42:20;;;;;;;43.25;21.85;;;6.60;99.90;;;;;;5099877;28;20046;-84
2022/11/30 05:44:46;;;;;;;42.22;22.05;;;6.60;99.90;;;;;;5103441;28;20032;-84
2022/11/30 05:47:12;;;;;;;43.35;21.95;;;6.60;99.90;;;;;;5102281;28;21078;-83
2022/11/30 05:49:38;;;;;;;44.30;22.38;;;6.60;99.90;;;;;;5101712;28;20101;-83
2022/11/30 05:52:03;;;;;;;43.78;22.40;;;6.60;99.90;;;;;;5101302;28;20382;-84
2022/11/30 05:54:29;;;;;;;42.25;22.13;;;6.50;99.90;;;;;;5101169;28;20047;-83
2022/11/30 05:56:54;;;;;;;48.75;22.00;;;6.50;99.90;;;;;;5083637;28;20042;-83
2022/11/30 05:59:23;;;;;;;45.85;21.75;;;6.60;99.90;;;;;;5099982;28;20127;-84
2022/11/30 06:01:51;;;;;;;43.45;22.33;;;6.50;99.90;;;;;;5098017;28;20397;-84
2022/11/30 06:04:16;;;;;;;48.42;24.23;;;6.50;99.90;;;;;;5101349;28;20058;-84
2022/11/30 06:06:42;;;;;;;46.35;23.08;;;6.50;99.90;;;;;;5104425;27;20040;-83
2022/11/30 06:09:08;;;;;;;40.75;21.88;;;6.50;99.90;;;;;;5100529;28;20055;-84
2022/11/30 06:11:33;;;;;;;45.13;21.95;;;6.50;99.90;;;;;;5102683;28;20043;-84
2022/11/30 06:13:59;;;;;;;43.88;22.02;;;6.50;99.90;;;;;;5099840;28;20051;-84
2022/11/30 06:16:24;;;;;;;43.85;22.27;;;6.50;99.90;;;;;;5100105;27;20040;-84
2022/11/30 06:18:51;;;;;;;44.40;21.75;;;6.50;99.90;;;;;;5099735;28;20066;-84
2022/11/30 06:21:16;;;;;;;44.70;22.08;;;6.50;99.90;;;;;;5100804;28;20062;-84
2022/11/30 06:23:42;;;;;;;49.38;22.75;;;6.50;99.90;;;;;;5101562;28;20048;-84
2022/11/30 06:26:10;;;;;;;44.20;22.75;;;6.50;99.90;;;;;;5102024;28;20059;-84
2022/11/30 06:28:36;;;;;;;46.20;22.15;;;6.50;99.90;;;;;;5101655;28;20039;-84
2022/11/30 06:31:04;;;;;;;43.58;21.20;;;6.50;99.90;;;;;;5101096;28;20051;-84
2022/11/30 06:33:30;;;;;;;48.60;21.80;;;6.50;99.90;;;;;;5101752;28;20040;-83
2022/11/30 06:35:56;;;;;;;45.65;21.80;;;6.50;99.90;;;;;;5101326;28;20088;-84
2022/11/30 06:38:23;;;;;;;49.38;23.42;;;6.50;99.90;;;;;;5084324;28;20495;-83
2022/11/30 06:40:49;;;;;;;45.38;21.80;;;6.50;99.90;;;;;;5116690;27;20107;-84
2022/11/30 06:43:14;;;;;;;51.50;23.33;;;6.40;99.90;;;;;;5100692;27;20115;-84
2022/11/30 06:45:43;;;;;;;50.55;21.92;;;6.40;99.90;;;;;;5098225;28;20048;-83
2022/11/30 06:48:09;;;;;;;49.92;23.42;;;6.40;99.90;;;;;;5105733;28;20135;-85
2022/11/30 06:50:34;;;;;;;49.53;22.75;;;6.40;99.90;;;;;;5106626;28;20105;-85
2022/11/30 06:53:00;;;;;;;50.45;23.05;;;6.40;99.90;;;;;;5108549;28;20044;-85
2022/11/30 06:55:26;;;;;;;51.95;22.73;;;6.40;99.90;;;;;;5090238;28;20078;-85
2022/11/30 06:57:51;;;;;;;45.55;20.63;;;6.50;99.90;;;;;;5106321;28;20058;-85
2022/11/30 07:00:18;;;;;;;48.90;21.83;;;6.40;99.90;;;;;;5099870;28;20047;-84
2022/11/30 07:02:44;;;;;;;39.63;19.20;;;6.40;99.90;;;;;;5105640;28;20126;-84
2022/11/30 07:05:10;;;;;;;44.45;20.58;;;6.40;99.90;;;;;;5109168;28;20050;-85
2022/11/30 07:07:36;;;;;;;39.85;19.75;;;6.40;99.90;;;;;;5107554;28;20051;-85
2022/11/30 07:10:01;;;;;;;38.42;18.30;;;6.40;99.90;;;;;;5108398;28;20051;-85
2022/11/30 07:12:27;;;;;;;36.35;18.40;;;6.40;99.90;;;;;;5090914;28;20073;-85
2022/11/30 07:14:55;;;;;;;37.45;18.20;;;6.40;99.90;;;;;;5108335;28;20112;-84
2022/11/30 07:17:21;;;;;;;32.17;18.00;;;6.40;99.90;;;;;;5090732;28;20119;-85
2022/11/30 07:19:47;;;;;;;35.97;18.67;;;6.40;99.90;;;;;;5108979;28;20126;-84
2022/11/30 07:22:13;;;;;;;35.08;17.58;;;6.30;99.90;;;;;;5107261;28;20047;-85
2022/11/30 07:27:22;;;;;;;36.50;17.70;;;6.30;99.90;;;;;;5096361;28;20813;-84
2022/11/30 07:29:50;;;;;;;35.03;18.02;;;6.30;99.90;;;;;;5096355;28;20048;-85
2022/11/30 07:32:16;;;;;;;34.58;16.92;;;6.30;99.90;;;;;;5087002;28;20048;-84
2022/11/30 07:34:42;;;;;;;29.17;16.48;;;6.30;99.90;;;;;;5104323;28;20048;-85
2022/11/30 07:37:07;;;;;;;31.30;16.25;;;6.30;99.90;;;;;;5100528;28;20051;-85
2022/11/30 07:39:33;;;;;;;29.98;15.98;;;6.30;99.90;;;;;;5107530;28;20043;-85
2022/11/30 07:41:58;;;;;;;29.63;16.55;;;6.30;99.90;;;;;;5104819;28;20075;-85
2022/11/30 07:44:24;;;;;;;28.77;16.58;;;6.30;99.90;;;;;;5106012;28;20055;-84
2022/11/30 07:46:50;;;;;;;27.35;15.43;;;6.30;99.90;;;;;;5109061;27;20043;-84
2022/11/30 07:49:15;;;;;;;33.28;17.48;;;6.30;99.90;;;;;;5108529;28;20047;-83
2022/11/30 07:51:41;;;;;;;27.42;16.45;;;6.30;99.90;;;;;;5107078;28;20044;-83
2022/11/30 07:54:06;;;;;;;29.40;16.48;;;6.30;99.90;;;;;;5107208;28;20050;-84
2022/11/30 07:56:32;;;;;;;31.83;16.40;;;6.30;99.90;;;;;;5108042;28;20047;-84
2022/11/30 07:59:00;;;;;;;25.20;15.05;;;6.30;99.90;;;;;;5109089;28;20080;-84
2022/11/30 08:01:28;;;;;;;25.38;14.65;;;6.30;99.90;;;;;;5108444;28;20051;-83
2022/11/30 08:03:54;;;;;;;27.13;15.45;;;6.30;99.90;;;;;;5108543;28;20120;-84
2022/11/30 08:06:22;;;;;;;26.48;16.67;;;6.30;99.90;;;;;;5106893;28;20052;-84
2022/11/30 08:08:53;;;;;;;23.77;15.05;;;6.30;99.90;;;;;;5108702;28;20614;-84
2022/11/30 08:11:22;;;;;;;27.00;15.93;;;6.30;99.90;;;;;;5107947;28;20035;-84
2022/11/30 08:13:48;;;;;;;26.85;15.25;;;6.30;99.90;;;;;;5108799;28;20050;-84
2022/11/30 08:16:22;;;;;;;25.08;15.30;;;6.30;99.90;;;;;;5107109;28;20421;-83
2022/11/30 08:18:48;;;;;;;23.90;15.32;;;6.30;99.90;;;;;;5105078;28;21041;-84
2022/11/30 08:21:17;;;;;;;24.25;15.20;;;6.30;99.90;;;;;;5106859;28;20175;-83
2022/11/30 08:23:51;;;;;;;22.38;13.77;;;6.30;99.90;;;;;;5106278;28;20036;-83
2022/11/30 08:26:26;;;;;;;20.67;13.70;;;6.30;99.90;;;;;;5091085;28;20051;-83
2022/11/30 08:28:52;;;;;;;22.73;13.88;;;6.30;99.90;;;;;;5089853;28;20808;-83
2022/11/30 08:31:28;;;;;;;21.27;13.38;;;6.30;99.90;;;;;;5107983;28;20071;-85
2022/11/30 08:34:02;;;;;;;20.45;13.57;;;6.30;99.90;;;;;;5105315;28;20061;-84
2022/11/30 08:36:28;;;;;;;19.42;12.88;;;6.30;99.90;;;;;;5106027;28;20043;-84
2022/11/30 08:38:56;;;;;;;19.90;12.77;;;6.30;99.90;;;;;;5106417;28;20044;-84
2022/11/30 08:41:22;;;;;;;19.52;13.93;;;6.30;99.90;;;;;;5097738;28;20074;-83
2022/11/30 08:43:49;;;;;;;21.63;13.00;;;6.30;99.90;;;;;;5106706;28;20532;-84
2022/11/30 08:46:17;;;;;;;19.20;13.05;;;6.30;99.90;;;;;;5108364;28;20083;-84
2022/11/30 08:48:43;;;;;;;20.30;13.10;;;6.30;99.90;;;;;;5107791;28;20489;-84
2022/11/30 08:51:15;;;;;;;17.83;12.88;;;6.30;99.90;;;;;;5089509;28;20046;-84
2022/11/30 08:53:40;;;;;;;19.35;13.02;;;6.30;99.90;;;;;;5107999;28;20042;-84
2022/11/30 08:56:18;;;;;;;17.73;12.90;;;6.30;99.90;;;;;;5106637;28;20130;-82
2022/11/30 08:58:44;;;;;;;19.02;13.35;;;6.30;99.90;;;;;;5107739;28;20039;-83
2022/11/30 09:01:17;;;;;;;18.52;13.25;;;6.40;99.90;;;;;;5106798;28;20047;-83
2022/11/30 09:03:43;;;;;;;20.13;14.07;;;6.40;99.90;;;;;;5106376;28;20081;-84
2022/11/30 09:06:18;;;;;;;18.35;13.43;;;6.40;99.90;;;;;;5105735;28;20132;-84
2022/11/30 09:08:45;;;;;;;20.88;13.30;;;6.40;99.90;;;;;;5108145;28;20088;-83
2022/11/30 09:11:20;;;;;;;18.10;12.93;;;6.20;99.90;;;;;;5105767;28;20047;-83
2022/11/30 09:13:47;;;;;;;18.63;13.15;;;6.30;99.90;;;;;;5107732;28;20127;-83
2022/11/30 09:16:14;;;;;;;19.45;14.50;;;6.30;99.90;;;;;;5106654;28;20035;-83
2022/11/30 09:18:40;;;;;;;21.05;14.80;;;6.20;99.90;;;;;;5106233;28;20050;-83
2022/11/30 09:21:09;;;;;;;19.33;12.93;;;6.40;99.90;;;;;;5107523;28;20044;-84
2022/11/30 09:23:35;;;;;;;21.10;15.13;;;6.40;99.90;;;;;;5107748;28;20278;-83
2022/11/30 09:26:02;;;;;;;18.55;13.90;;;6.40;99.90;;;;;;5106127;28;20051;-83
2022/11/30 09:28:32;;;;;;;20.90;13.98;;;6.50;99.90;;;;;;5107496;28;20048;-83
2022/11/30 09:31:01;;;;;;;19.27;14.32;;;6.40;99.90;;;;;;5106520;28;20115;-84
2022/11/30 09:33:28;;;;;;;19.88;13.63;;;6.40;99.90;;;;;;5106594;28;20058;-84
2022/11/30 09:36:00;;;;;;;21.48;14.45;;;6.50;99.90;;;;;;5104838;28;20048;-84
2022/11/30 09:38:27;;;;;;;19.55;14.63;;;6.60;99.90;;;;;;5087436;28;20054;-83
2022/11/30 09:40:59;;;;;;;20.80;14.98;;;6.60;99.90;;;;;;5104353;28;20501;-85
2022/11/30 09:44:00;;;;;;;21.77;14.88;;;6.60;99.90;;;;;;5084420;28;20494;-85
2022/11/30 09:46:35;;;;;;;18.75;15.20;;;6.60;99.90;;;;;;5088944;28;20087;-84
2022/11/30 09:49:15;;;;;;;18.73;14.23;;;6.70;99.90;;;;;;5089682;28;20057;-84
2022/11/30 09:51:41;;;;;;;19.13;14.45;;;6.50;99.90;;;;;;5091004;28;20730;-84
2022/11/30 09:54:14;;;;;;;20.60;15.43;;;6.70;99.90;;;;;;5096605;28;20050;-84
2022/11/30 09:56:42;;;;;;;21.23;14.88;;;6.70;99.90;;;;;;5108868;28;20852;-84
2022/11/30 09:59:21;;;;;;;19.88;14.50;;;6.70;99.90;;;;;;5108913;28;20059;-85
2022/11/30 10:01:47;;;;;;;18.52;13.65;;;6.90;99.90;;;;;;5110004;28;20043;-84
2022/11/30 10:04:24;;;;;;;19.20;13.70;;;6.70;99.90;;;;;;5109200;28;20055;-83
2022/11/30 10:07:08;;;;;;;18.00;13.52;;;6.90;99.90;;;;;;5109959;28;20054;-84
2022/11/30 10:10:01;;;;;;;17.27;14.18;;;7.00;99.90;;;;;;5109599;28;20083;-84
2022/11/30 10:12:37;;;;;;;;;;;7.00;99.90;;;;;;5101372;28;20461;-84
2022/11/30 10:15:21;;;;;;;20.25;15.05;;;7.10;99.90;;;;;;5109353;28;19928;-84
2022/11/30 10:17:56;;;;;;;20.70;14.73;;;7.00;99.90;;;;;;5104311;28;20040;-85
2022/11/30 10:21:00;;;;;;;17.85;14.98;;;6.90;99.90;;;;;;5109428;28;20056;-85
2022/11/30 10:24:05;;;;;;;18.80;14.40;;;7.10;99.90;;;;;;5099173;28;20063;-84
2022/11/30 10:26:34;;;;;;;21.15;16.02;;;7.00;99.90;;;;;;5097408;28;20044;-85
2022/11/30 10:29:17;;;;;;;19.10;15.20;;;7.00;99.90;;;;;;5109808;28;20047;-85
2022/11/30 10:31:44;;;;;;;19.42;14.48;;;;;;;;;;5109198;28;20072;-84
2022/11/30 10:34:21;;;;;;;19.33;14.70;;;;;;;;;;5108736;28;20123;-85
2022/11/30 10:37:00;;;;;;;18.55;14.52;;;;;;;;;;5108902;28;20051;-84
2022/11/30 10:39:30;;;;;;;17.58;13.30;;;;;;;;;;5091915;28;20056;-85
2022/11/30 10:42:22;;;;;;;19.73;14.38;;;;;;;;;;5107815;28;20126;-84
2022/11/30 10:44:55;;;;;;;17.25;13.63;;;;;;;;;;5095647;28;20223;-85
2022/11/30 10:47:26;;;;;;;17.27;13.98;;;;;;;;;;5107347;28;20043;-83
2022/11/30 10:49:52;;;;;;;17.50;14.27;;;;;;;;;;5105507;28;20043;-86
2022/11/30 10:52:23;;;;;;;17.05;13.55;;;;;;;;;;5105016;28;20066;-85
2022/11/30 10:54:51;;;;;;;15.30;12.60;;;;;;;;;;5108303;28;20050;-85
2022/11/30 10:57:17;;;;;;;16.95;13.90;;;;;;;;;;5107497;28;20058;-86
2022/11/30 10:59:48;;;;;;;16.73;12.98;;;;;;;;;;5104721;28;20404;-86
2022/11/30 11:02:33;;;;;;;17.77;13.38;;;;;;;;;;5078788;28;20039;-84
2022/11/30 11:05:19;;;;;;;18.42;13.60;;;;;;;;;;5101492;28;20142;-85
2022/11/30 11:07:54;;;;;;;23.20;17.00;;;;;;;;;;5106341;28;20055;-84
2022/11/30 11:10:40;;;;;;;21.52;15.93;;;;;;;;;;5103907;28;20093;-85
2022/11/30 11:13:15;;;;;;;19.77;14.50;;;;;;;;;;5095297;28;20059;-84
2022/11/30 11:15:54;;;;;;;38.05;30.38;;;;;;;;;;5106094;28;20058;-84
2022/11/30 11:18:21;;;;;;;19.90;14.23;;;;;;;;;;5096697;28;20082;-84
2022/11/30 11:20:47;;;;;;;24.08;16.20;;;;;;;;;;5088826;28;20043;-84
2022/11/30 11:23:34;;;;;;;24.10;16.00;;;;;;;;;;5087717;28;20044;-85
2022/11/30 11:26:03;;;;;;;34.97;27.60;;;;;;;;;;5098717;28;20864;-84
2022/11/30 11:28:29;;;;;;;23.77;16.98;;;;;;;;;;5104213;28;20035;-83
2022/11/30 11:30:56;;;;;;;64.72;44.20;;;;;;;;;;5107546;28;20051;-86
2022/11/30 11:33:22;;;;;;;25.08;17.75;;;;;;;;;;5107638;28;20112;-86
2022/11/30 11:35:50;;;;;;;25.05;18.40;;;;;;;;;;5108978;28;20051;-85
2022/11/30 11:38:19;;;;;;;26.63;18.30;;;;;;;;;;5106959;28;20130;-85
2022/11/30 11:41:00;;;;;;;27.38;17.90;;;;;;;;;;5108558;28;20738;-85
2022/11/30 11:43:28;;;;;;;25.27;17.20;;;;;;;;;;5106793;28;20070;-85
2022/11/30 11:45:56;;;;;;;25.83;17.70;;;;;;;;;;5107017;28;20036;-85
2022/11/30 11:48:27;;;;;;;27.70;17.95;;;;;;;;;;5106611;28;20046;-84
2022/11/30 11:51:03;;;;;;;26.40;18.13;;;;;;;;;;5107255;28;20485;-85
2022/11/30 11:53:51;;;;;;;26.60;18.23;;;;;;;;;;5109037;28;20527;-85
2022/11/30 11:56:25;;;;;;;28.17;18.90;;;;;;;;;;5106967;28;20055;-84
2022/11/30 11:58:56;;;;;;;27.02;18.33;;;;;;;;;;5107543;28;20051;-84
2022/11/30 12:01:32;;;;;;;29.75;18.98;;;;;;;;;;5108452;28;20083;-83
2022/11/30 12:04:05;;;;;;;27.02;18.77;;;;;;;;;;5105008;28;20490;-83
2022/11/30 12:06:34;;;;;;;28.02;19.40;;;;;;;;;;5107254;28;20103;-84
2022/11/30 12:09:06;;;;;;;29.85;19.13;;;;;;;;;;5108654;28;20054;-85
2022/11/30 12:11:42;;;;;;;28.60;19.60;;;;;;;;;;5091980;28;20051;-86
2022/11/30 12:14:10;;;;;;;26.63;18.45;;;;;;;;;;5108554;28;20083;-85
2022/11/30 12:16:55;;;;;;;28.98;18.83;;;;;;;;;;5107256;28;20052;-85
2022/11/30 12:19:25;;;;;;;29.20;18.80;;;;;;;;;;5105321;28;20044;-85
2022/11/30 12:22:02;;;;;;;31.08;19.27;;;;;;;;;;5106687;28;20044;-85
2022/11/30 12:24:37;;;;;;;30.30;19.85;;;;;;;;;;5106141;28;20046;-86
2022/11/30 12:27:13;;;;;;;32.95;21.40;;;;;;;;;;5102591;28;20038;-86
2022/11/30 12:29:39;;;;;;;28.33;19.30;;;;;;;;;;5105705;28;20048;-85
2022/11/30 12:32:20;;;;;;;30.13;20.40;;;;;;;;;;5105709;28;20188;-85
2022/11/30 12:35:15;;;;;;;28.50;19.75;;;7.40;99.90;;;;;;5106891;28;20043;-85
2022/11/30 12:37:45;;;;;;;28.08;19.92;;;7.30;99.90;;;;;;5090115;28;20066;-84
2022/11/30 12:40:23;;;;;;;30.08;20.77;;;7.30;99.90;;;;;;5107283;28;20505;-86
2022/11/30 12:42:58;;;;;;;29.55;20.50;;;7.30;99.90;;;;;;5106059;28;20079;-85
2022/11/30 12:45:36;;;;;;;33.88;20.50;;;7.20;99.90;;;;;;5107283;28;20088;-85
2022/11/30 12:48:20;;;;;;;28.60;20.90;;;7.10;99.90;;;;;;5107101;28;20136;-84
2022/11/30 12:51:16;;;;;;;32.95;20.45;;;7.20;99.90;;;;;;5106814;28;20045;-86
2022/11/30 12:54:05;;;;;;;30.45;21.08;;;7.10;99.90;;;;;;5106694;28;20051;-85
2022/11/30 12:57:11;;;;;;;32.92;24.00;;;7.10;99.90;;;;;;5105665;28;20501;-84
2022/11/30 13:00:00;;;;;;;28.63;20.13;;;7.10;99.90;;;;;;5083823;28;20084;-85
2022/11/30 13:02:56;;;;;;;28.73;19.35;;;7.10;99.90;;;;;;5106680;28;20184;-85
2022/11/30 13:05:30;;;;;;;30.30;19.98;;;7.10;99.90;;;;;;5107206;28;20477;-85
2022/11/30 13:08:10;;;;;;;30.95;20.15;;;7.10;99.90;;;;;;5106174;28;20051;-85